createdAt,value
2018-12-20T00:02:18.411Z,6.80
2018-12-20T00:04:51.485Z,6.80
2018-12-20T00:07:23.383Z,6.80
2018-12-20T00:09:55.313Z,6.70
2018-12-20T00:12:28.102Z,6.60
2018-12-20T00:14:59.824Z,6.60
2018-12-20T00:17:36.509Z,6.50
2018-12-20T00:20:08.302Z,6.60
2018-12-20T00:22:40.506Z,6.40
2018-12-20T00:25:12.843Z,6.30
2018-12-20T00:27:44.963Z,6.30
2018-12-20T00:30:16.202Z,6.40
2018-12-20T00:32:48.457Z,6.40
2018-12-20T00:35:20.848Z,6.50
2018-12-20T00:37:52.742Z,6.50
2018-12-20T00:40:24.692Z,6.30
2018-12-20T00:42:56.467Z,6.30
2018-12-20T00:45:28.604Z,6.30
2018-12-20T00:48:00.745Z,6.30
2018-12-20T00:50:33.449Z,6.30
2018-12-20T00:53:06.034Z,6.30
2018-12-20T00:55:39.430Z,6.30
2018-12-20T00:58:11.853Z,6.30
2018-12-20T01:00:44.294Z,6.30
2018-12-20T01:03:16.988Z,6.40
2018-12-20T01:05:48.888Z,6.40
2018-12-20T01:08:20.150Z,6.40
2018-12-20T01:10:51.691Z,6.40
2018-12-20T01:13:23.086Z,6.40
2018-12-20T01:15:55.394Z,6.40
2018-12-20T01:18:27.440Z,6.40
2018-12-20T01:20:58.742Z,6.40
2018-12-20T01:23:31.242Z,6.40
2018-12-20T01:26:02.627Z,6.40
2018-12-20T01:28:35.195Z,6.40
2018-12-20T01:31:06.842Z,6.40
2018-12-20T01:33:38.953Z,6.40
2018-12-20T01:36:10.448Z,6.40
2018-12-20T01:38:42.213Z,6.40
2018-12-20T01:41:14.102Z,6.40
2018-12-20T01:43:46.688Z,6.40
2018-12-20T01:46:18.269Z,6.40
2018-12-20T01:48:50.112Z,6.40
2018-12-20T01:51:21.846Z,6.40
2018-12-20T01:53:53.930Z,6.50
2018-12-20T01:56:25.637Z,6.50
2018-12-20T01:58:58.213Z,6.60
2018-12-20T02:01:30.913Z,6.60
2018-12-20T02:04:03.501Z,6.60
2018-12-20T02:06:35.283Z,6.60
2018-12-20T02:09:10.261Z,6.60
2018-12-20T02:11:42.242Z,6.60
2018-12-20T02:14:14.133Z,6.60
2018-12-20T02:16:46.671Z,6.60
2018-12-20T02:19:17.949Z,6.60
2018-12-20T02:21:50.380Z,6.60
2018-12-20T02:24:22.975Z,6.60
2018-12-20T02:26:55.130Z,6.60
2018-12-20T02:29:27.674Z,6.60
2018-12-20T02:32:01.500Z,6.60
2018-12-20T02:34:34.749Z,6.60
2018-12-20T02:37:06.529Z,6.60
2018-12-20T02:39:38.729Z,6.70
2018-12-20T02:42:10.091Z,6.60
2018-12-20T02:44:42.151Z,6.50
2018-12-20T02:47:13.429Z,6.40
2018-12-20T02:49:45.509Z,6.30
2018-12-20T02:52:17.286Z,6.30
2018-12-20T02:54:49.679Z,6.30
2018-12-20T02:57:21.783Z,6.30
2018-12-20T02:59:54.166Z,6.20
2018-12-20T03:02:25.613Z,6.10
2018-12-20T03:04:58.269Z,6.10
2018-12-20T03:07:30.090Z,6.10
2018-12-20T03:10:02.074Z,6.10
2018-12-20T03:12:34.162Z,6.10
2018-12-20T03:15:06.879Z,6.10
2018-12-20T03:17:38.876Z,6.20
2018-12-20T03:20:11.809Z,6.20
2018-12-20T03:22:44.499Z,6.20
2018-12-20T03:25:15.808Z,6.20
2018-12-20T03:27:48.256Z,6.30
2018-12-20T03:30:20.582Z,6.40
2018-12-20T03:32:52.950Z,6.50
2018-12-20T03:35:25.073Z,6.60
2018-12-20T03:37:57.271Z,6.60
2018-12-20T03:40:30.399Z,6.60
2018-12-20T03:43:02.599Z,6.70
2018-12-20T03:45:34.617Z,6.70
2018-12-20T03:48:07.055Z,6.70
2018-12-20T03:50:39.257Z,6.70
2018-12-20T03:53:11.698Z,6.70
2018-12-20T03:55:44.252Z,6.70
2018-12-20T03:58:15.829Z,6.80
2018-12-20T04:00:49.375Z,6.80
2018-12-20T04:03:21.630Z,6.70
2018-12-20T04:05:54.145Z,6.80
2018-12-20T04:08:26.958Z,6.70
2018-12-20T04:10:59.834Z,6.60
2018-12-20T04:13:32.177Z,6.60
2018-12-20T04:16:04.051Z,6.60
2018-12-20T04:18:37.468Z,6.60
2018-12-20T04:21:10.048Z,6.60
2018-12-20T04:23:41.891Z,6.60
2018-12-20T04:26:14.741Z,6.50
2018-12-20T04:28:47.447Z,6.50
2018-12-20T04:31:19.349Z,6.50
2018-12-20T04:33:52.088Z,6.40
2018-12-20T04:36:24.739Z,6.50
2018-12-20T04:38:57.450Z,6.50
2018-12-20T04:41:29.328Z,6.50
2018-12-20T04:44:02.228Z,6.60
2018-12-20T04:46:34.863Z,6.60
2018-12-20T04:49:06.620Z,6.60
2018-12-20T04:51:38.959Z,6.60
2018-12-20T04:54:12.119Z,6.60
2018-12-20T04:56:44.268Z,6.70
2018-12-20T04:59:16.900Z,6.70
2018-12-20T05:01:48.926Z,6.80
2018-12-20T05:04:21.790Z,6.80
2018-12-20T05:06:52.791Z,6.80
2018-12-20T05:09:25.089Z,6.80
2018-12-20T05:11:56.889Z,6.90
2018-12-20T05:14:29.263Z,6.90
2018-12-20T05:17:01.094Z,7.00
2018-12-20T05:19:34.434Z,7.00
2018-12-20T05:22:06.593Z,7.00
2018-12-20T05:24:38.889Z,7.10
2018-12-20T05:27:11.548Z,7.00
2018-12-20T05:29:42.610Z,6.90
2018-12-20T05:32:15.117Z,6.90
2018-12-20T05:34:47.649Z,6.90
2018-12-20T05:37:19.938Z,6.90
2018-12-20T05:39:51.868Z,6.90
2018-12-20T05:42:24.009Z,6.90
2018-12-20T05:44:56.830Z,7.00
2018-12-20T05:47:29.166Z,6.90
2018-12-20T05:50:01.349Z,7.00
2018-12-20T05:52:33.580Z,7.00
2018-12-20T05:55:04.801Z,7.00
2018-12-20T05:57:37.051Z,7.00
2018-12-20T06:00:09.890Z,7.00
2018-12-20T06:02:41.454Z,7.10
2018-12-20T06:05:14.009Z,7.10
2018-12-20T06:07:46.529Z,7.10
2018-12-20T06:10:19.313Z,7.10
2018-12-20T06:12:52.138Z,7.10
2018-12-20T06:15:24.170Z,7.10
2018-12-20T06:17:57.030Z,7.10
2018-12-20T06:20:29.469Z,7.10
2018-12-20T06:23:01.172Z,7.10
2018-12-20T06:25:33.470Z,7.10
2018-12-20T06:28:05.549Z,7.10
2018-12-20T06:30:37.909Z,7.10
2018-12-20T06:33:09.929Z,7.10
2018-12-20T06:35:41.829Z,7.10
2018-12-20T06:38:13.549Z,7.20
2018-12-20T06:40:46.050Z,7.20
2018-12-20T06:43:17.909Z,7.20
2018-12-20T06:45:49.548Z,7.20
2018-12-20T06:48:21.430Z,7.20
2018-12-20T06:50:53.488Z,7.20
2018-12-20T06:53:25.652Z,7.20
2018-12-20T06:55:57.413Z,7.20
2018-12-20T06:58:29.612Z,7.30
2018-12-20T07:01:00.610Z,7.40
2018-12-20T07:03:33.050Z,7.40
2018-12-20T07:06:04.969Z,7.50
2018-12-20T07:08:37.548Z,7.60
2018-12-20T07:11:09.550Z,7.60
2018-12-20T07:13:41.949Z,7.60
2018-12-20T07:16:13.550Z,7.60
2018-12-20T07:18:45.453Z,7.60
2018-12-20T07:21:17.690Z,7.60
2018-12-20T07:23:49.731Z,7.60
2018-12-20T07:26:23.230Z,7.60
2018-12-20T07:28:56.513Z,7.60
2018-12-20T07:31:29.389Z,7.50
2018-12-20T07:34:01.210Z,7.40
2018-12-20T07:36:33.790Z,7.40
2018-12-20T07:39:07.151Z,7.30
2018-12-20T07:41:38.931Z,7.10
2018-12-20T07:44:11.050Z,6.90
2018-12-20T07:46:43.271Z,6.70
2018-12-20T07:49:16.970Z,6.60
2018-12-20T07:51:49.290Z,6.60
2018-12-20T07:54:21.490Z,6.60
2018-12-20T07:56:53.732Z,6.60
2018-12-20T07:59:25.543Z,6.70
2018-12-20T08:01:56.927Z,6.80
2018-12-20T08:04:28.883Z,6.80
2018-12-20T08:07:01.403Z,6.80
2018-12-20T08:09:34.440Z,6.80
2018-12-20T08:12:06.201Z,6.80
2018-12-20T08:14:39.300Z,6.80
2018-12-20T08:17:11.119Z,6.80
2018-12-20T08:19:43.654Z,6.80
2018-12-20T08:22:15.872Z,6.80
2018-12-20T08:24:48.112Z,6.90
2018-12-20T08:27:20.773Z,6.90
2018-12-20T08:29:53.472Z,7.00
2018-12-20T08:32:25.239Z,7.10
2018-12-20T08:34:58.761Z,7.20
2018-12-20T08:37:30.991Z,7.20
2018-12-20T08:40:03.212Z,7.20
2018-12-20T08:42:35.870Z,7.30
2018-12-20T08:45:07.950Z,7.30
2018-12-20T08:47:40.048Z,7.50
2018-12-20T08:50:12.025Z,7.60
2018-12-20T08:52:43.980Z,7.70
2018-12-20T08:55:15.609Z,7.70
2018-12-20T08:57:47.117Z,7.70
2018-12-20T09:00:19.419Z,7.70
2018-12-20T09:02:51.247Z,7.70
2018-12-20T09:05:22.560Z,7.80
2018-12-20T09:07:53.959Z,7.80
2018-12-20T09:10:25.997Z,7.80
2018-12-20T09:12:58.588Z,7.90
2018-12-20T09:15:29.878Z,7.90
2018-12-20T09:18:02.198Z,7.90
2018-12-20T09:20:33.677Z,7.90
2018-12-20T09:23:05.460Z,7.80
2018-12-20T09:25:38.299Z,7.80
2018-12-20T09:28:09.715Z,7.80
2018-12-20T09:30:41.275Z,7.80
2018-12-20T09:33:12.817Z,7.90
2018-12-20T09:35:44.735Z,7.90
2018-12-20T09:38:16.814Z,8.00
2018-12-20T09:40:48.856Z,7.90
2018-12-20T09:43:21.317Z,7.90
2018-12-20T09:45:52.800Z,7.90
2018-12-20T09:48:24.539Z,8.00
2018-12-20T09:50:57.559Z,8.10
2018-12-20T09:53:29.879Z,8.20
2018-12-20T09:56:01.884Z,8.30
2018-12-20T09:58:33.741Z,8.40
2018-12-20T10:01:05.678Z,8.40
2018-12-20T10:03:37.885Z,8.40
2018-12-20T10:06:09.644Z,8.40
2018-12-20T10:08:41.393Z,8.50
2018-12-20T10:11:12.824Z,8.50
2018-12-20T10:13:44.288Z,8.50
2018-12-20T10:16:16.688Z,8.50
2018-12-20T10:18:48.449Z,8.50
2018-12-20T10:21:21.935Z,8.60
2018-12-20T10:23:54.341Z,8.50
2018-12-20T10:26:26.440Z,8.60
2018-12-20T10:28:57.953Z,8.60
2018-12-20T10:31:29.781Z,8.70
2018-12-20T10:34:02.143Z,8.80
2018-12-20T10:36:34.147Z,9.00
2018-12-20T10:39:07.907Z,9.30
2018-12-20T10:41:40.860Z,9.50
2018-12-20T10:44:12.380Z,9.80
2018-12-20T10:46:44.522Z,10.00
2018-12-20T10:49:16.683Z,10.30
2018-12-20T10:51:48.783Z,10.40
2018-12-20T10:54:20.542Z,10.30
2018-12-20T10:56:52.642Z,10.10
2018-12-20T10:59:24.708Z,10.10
2018-12-20T11:02:00.998Z,10.10
2018-12-20T11:04:36.398Z,10.00
2018-12-20T11:07:13.457Z,10.00
2018-12-20T11:09:50.523Z,9.90
2018-12-20T11:12:32.717Z,9.90
2018-12-20T11:15:04.018Z,9.80
2018-12-20T11:17:37.453Z,9.80
2018-12-20T11:20:10.020Z,9.80
2018-12-20T11:22:42.003Z,9.70
2018-12-20T11:25:12.633Z,9.50
2018-12-20T11:27:44.762Z,9.50
2018-12-20T11:30:16.101Z,9.40
2018-12-20T11:32:48.786Z,9.40
2018-12-20T11:35:20.601Z,9.50
2018-12-20T11:37:51.575Z,9.60
2018-12-20T11:40:22.699Z,9.60
2018-12-20T11:42:54.842Z,9.70
2018-12-20T11:45:26.842Z,9.80
2018-12-20T11:47:58.702Z,9.80
2018-12-20T11:50:31.220Z,9.80
2018-12-20T11:53:03.421Z,9.90
2018-12-20T11:55:35.102Z,10.00
2018-12-20T11:58:06.920Z,10.20
2018-12-20T12:00:38.934Z,10.30
2018-12-20T12:03:11.033Z,10.20
2018-12-20T12:05:42.888Z,10.00
2018-12-20T12:08:14.417Z,9.90
2018-12-20T12:10:47.994Z,9.60
2018-12-20T12:13:19.732Z,9.60
2018-12-20T12:15:51.555Z,9.60
2018-12-20T12:18:23.193Z,9.60
2018-12-20T12:20:55.704Z,9.60
2018-12-20T12:23:27.023Z,9.60
2018-12-20T12:25:58.880Z,9.60
2018-12-20T12:28:31.047Z,9.60
2018-12-20T12:31:02.859Z,9.70
2018-12-20T12:33:34.902Z,9.80
2018-12-20T12:36:07.479Z,9.80
2018-12-20T12:38:38.799Z,9.90
2018-12-20T12:41:10.487Z,9.90
2018-12-20T12:43:43.028Z,10.00
2018-12-20T12:46:15.916Z,10.00
2018-12-20T12:48:47.477Z,10.00
2018-12-20T12:51:19.789Z,10.10
2018-12-20T12:53:51.011Z,10.10
2018-12-20T12:56:23.390Z,10.00
2018-12-20T12:58:55.352Z,10.10
2018-12-20T13:01:28.176Z,10.00
2018-12-20T13:03:59.854Z,10.10
2018-12-20T13:06:32.171Z,10.20
2018-12-20T13:09:02.071Z,10.20
2018-12-20T13:11:34.511Z,10.20
2018-12-20T13:14:06.411Z,10.20
2018-12-20T13:16:37.191Z,10.20
2018-12-20T13:19:09.992Z,10.20
2018-12-20T13:21:42.759Z,10.30
2018-12-20T13:24:14.536Z,10.20
2018-12-20T13:26:47.269Z,10.20
2018-12-20T13:29:18.988Z,10.20
2018-12-20T13:31:51.448Z,10.10
2018-12-20T13:34:22.908Z,10.20
2018-12-20T13:36:55.291Z,10.20
2018-12-20T13:39:26.452Z,10.20
2018-12-20T13:41:57.612Z,10.20
2018-12-20T13:44:29.651Z,10.20
2018-12-20T13:47:01.244Z,10.30
2018-12-20T13:49:33.325Z,10.20
2018-12-20T13:52:06.265Z,10.20
2018-12-20T13:54:37.970Z,10.20
2018-12-20T13:57:10.510Z,10.20
2018-12-20T13:59:42.130Z,10.10
2018-12-20T14:02:14.944Z,10.10
2018-12-20T14:04:46.169Z,10.00
2018-12-20T14:07:18.991Z,9.90
2018-12-20T14:09:51.233Z,9.80
2018-12-20T14:12:23.130Z,9.70
2018-12-20T14:14:55.354Z,9.60
2018-12-20T14:17:27.451Z,9.50
2018-12-20T14:19:58.991Z,9.50
2018-12-20T14:22:31.435Z,9.50
2018-12-20T14:25:03.371Z,9.60
2018-12-20T14:27:35.191Z,9.50
2018-12-20T14:30:07.674Z,9.40
2018-12-20T14:32:39.284Z,9.40
2018-12-20T14:35:11.012Z,9.50
2018-12-20T14:37:42.425Z,9.60
2018-12-20T14:40:13.823Z,9.60
2018-12-20T14:42:45.786Z,9.60
2018-12-20T14:45:17.723Z,9.60
2018-12-20T14:47:49.284Z,9.50
2018-12-20T14:50:22.024Z,9.60
2018-12-20T14:52:56.203Z,9.60
2018-12-20T14:55:28.628Z,9.60
2018-12-20T14:58:00.664Z,9.60
2018-12-20T15:00:33.163Z,9.70
2018-12-20T15:03:05.624Z,9.60
2018-12-20T15:05:38.064Z,9.60
2018-12-20T15:08:10.864Z,9.60
2018-12-20T15:10:42.285Z,9.60
2018-12-20T15:13:14.802Z,9.60
2018-12-20T15:15:46.342Z,9.60
2018-12-20T15:18:18.903Z,9.60
2018-12-20T15:20:50.427Z,9.60
2018-12-20T15:23:23.023Z,9.60
2018-12-20T15:25:54.745Z,9.50
2018-12-20T15:28:26.816Z,9.50
2018-12-20T15:30:58.867Z,9.50
2018-12-20T15:33:33.628Z,9.50
2018-12-20T15:36:05.601Z,9.40
2018-12-20T15:38:38.127Z,9.50
2018-12-20T15:41:10.113Z,9.50
2018-12-20T15:43:42.889Z,9.50
2018-12-20T15:46:14.344Z,9.60
2018-12-20T15:48:46.565Z,9.60
2018-12-20T15:51:18.584Z,9.80
2018-12-20T15:53:51.045Z,9.90
2018-12-20T15:56:23.346Z,9.80
2018-12-20T15:58:55.668Z,9.70
2018-12-20T16:01:28.026Z,9.70
2018-12-20T16:04:00.334Z,9.60
2018-12-20T16:06:32.305Z,9.50
2018-12-20T16:09:07.066Z,9.40
2018-12-20T16:11:39.067Z,9.40
2018-12-20T16:14:10.886Z,9.40
2018-12-20T16:16:43.965Z,9.40
2018-12-20T16:19:16.825Z,9.40
2018-12-20T16:21:48.505Z,9.30
2018-12-20T16:24:20.267Z,9.40
2018-12-20T16:26:51.805Z,9.40
2018-12-20T16:29:23.260Z,9.50
2018-12-20T16:31:55.600Z,9.50
2018-12-20T16:34:27.319Z,9.50
2018-12-20T16:36:59.559Z,9.50
2018-12-20T16:39:31.780Z,9.40
2018-12-20T16:42:03.467Z,9.40
2018-12-20T16:44:36.282Z,9.40
2018-12-20T16:47:07.923Z,9.40
2018-12-20T16:49:40.876Z,9.40
2018-12-20T16:52:12.149Z,9.40
2018-12-20T16:54:44.509Z,9.30
2018-12-20T16:57:17.381Z,9.40
2018-12-20T16:59:49.700Z,9.40
2018-12-20T17:02:22.301Z,9.40
2018-12-20T17:04:54.741Z,9.30
2018-12-20T17:07:26.710Z,9.30
2018-12-20T17:09:57.882Z,9.30
2018-12-20T17:12:29.464Z,9.30
2018-12-20T17:15:01.282Z,9.30
2018-12-20T17:17:33.021Z,9.30
2018-12-20T17:20:04.701Z,9.30
2018-12-20T17:22:37.683Z,9.30
2018-12-20T17:25:09.322Z,9.30
2018-12-20T17:27:40.959Z,9.20
2018-12-20T17:30:13.360Z,9.20
2018-12-20T17:32:45.362Z,9.30
2018-12-20T17:35:17.282Z,9.30
2018-12-20T17:37:49.280Z,9.30
2018-12-20T17:40:21.250Z,9.20
2018-12-20T17:42:53.680Z,9.20
2018-12-20T17:45:25.062Z,9.10
2018-12-20T17:47:57.321Z,9.20
2018-12-20T17:50:28.960Z,9.10
2018-12-20T17:53:01.083Z,9.10
2018-12-20T17:55:33.034Z,9.10
2018-12-20T17:58:04.894Z,9.20
2018-12-20T18:00:37.110Z,9.20
2018-12-20T18:03:09.309Z,9.20
2018-12-20T18:05:40.489Z,9.20
2018-12-20T18:08:12.756Z,9.10
2018-12-20T18:10:44.783Z,9.10
2018-12-20T18:13:16.656Z,9.10
2018-12-20T18:15:48.315Z,9.00
2018-12-20T18:18:20.639Z,9.00
2018-12-20T18:20:52.855Z,9.00
2018-12-20T18:23:24.776Z,9.00
2018-12-20T18:25:57.258Z,8.90
2018-12-20T18:28:29.936Z,8.90
2018-12-20T18:31:02.196Z,8.90
2018-12-20T18:33:34.716Z,8.90
2018-12-20T18:36:06.442Z,9.00
2018-12-20T18:38:38.477Z,9.00
2018-12-20T18:41:10.316Z,9.00
2018-12-20T18:43:41.811Z,9.00
2018-12-20T18:46:13.966Z,9.00
2018-12-20T18:48:45.826Z,9.00
2018-12-20T18:51:17.426Z,9.00
2018-12-20T18:53:49.565Z,8.90
2018-12-20T18:56:21.485Z,8.80
2018-12-20T18:58:56.129Z,8.80
2018-12-20T19:01:28.827Z,8.80
2018-12-20T19:04:00.546Z,8.80
2018-12-20T19:06:33.028Z,8.70
2018-12-20T19:09:06.586Z,8.70
2018-12-20T19:11:37.966Z,8.70
2018-12-20T19:14:09.845Z,8.70
2018-12-20T19:16:42.426Z,8.70
2018-12-20T19:19:13.672Z,8.70
2018-12-20T19:21:46.026Z,8.80
2018-12-20T19:24:17.745Z,8.70
2018-12-20T19:26:51.010Z,8.70
2018-12-20T19:29:22.385Z,8.70
2018-12-20T19:31:54.265Z,8.70
2018-12-20T19:34:26.545Z,8.60
2018-12-20T19:36:59.025Z,8.60
2018-12-20T19:39:31.406Z,8.60
2018-12-20T19:42:08.819Z,8.60
2018-12-20T19:44:40.645Z,8.60
2018-12-20T19:47:12.467Z,8.60
2018-12-20T19:49:44.345Z,8.60
2018-12-20T19:52:16.405Z,8.60
2018-12-20T19:54:48.348Z,8.60
2018-12-20T19:57:20.806Z,8.60
2018-12-20T19:59:52.891Z,8.60
2018-12-20T20:02:25.227Z,8.60
2018-12-20T20:04:57.546Z,8.50
2018-12-20T20:07:29.450Z,8.50
2018-12-20T20:10:00.508Z,8.40
2018-12-20T20:12:33.105Z,8.40
2018-12-20T20:15:05.786Z,8.40
2018-12-20T20:17:37.006Z,8.30
2018-12-20T20:20:13.794Z,8.40
2018-12-20T20:22:43.106Z,8.30
2018-12-20T20:25:14.686Z,8.30
2018-12-20T20:27:47.147Z,8.30
2018-12-20T20:30:19.306Z,8.30
2018-12-20T20:32:50.871Z,8.20
2018-12-20T20:35:23.386Z,8.20
2018-12-20T20:37:55.026Z,8.20
2018-12-20T20:40:26.806Z,8.20
2018-12-20T20:42:58.508Z,8.20
2018-12-20T20:45:30.827Z,8.30
2018-12-20T20:48:02.607Z,8.30
2018-12-20T20:50:33.769Z,8.30
2018-12-20T20:53:06.068Z,8.30
2018-12-20T20:55:38.547Z,8.40
2018-12-20T20:58:10.546Z,8.40
2018-12-20T21:00:42.726Z,8.40
2018-12-20T21:03:14.648Z,8.40
2018-12-20T21:05:47.886Z,8.50
2018-12-20T21:08:19.649Z,8.50
2018-12-20T21:10:51.828Z,8.50
2018-12-20T21:13:24.307Z,8.60
2018-12-20T21:15:55.206Z,8.60
2018-12-20T21:18:26.666Z,8.60
2018-12-20T21:20:58.827Z,8.60
2018-12-20T21:23:31.834Z,8.60
2018-12-20T21:26:04.107Z,8.60
2018-12-20T21:28:37.468Z,8.70
2018-12-20T21:31:09.387Z,8.70
2018-12-20T21:33:42.687Z,8.70
2018-12-20T21:36:14.827Z,8.70
2018-12-20T21:38:47.008Z,8.70
2018-12-20T21:41:18.727Z,8.70
2018-12-20T21:43:50.209Z,8.60
2018-12-20T21:46:22.808Z,8.70
2018-12-20T21:48:55.168Z,8.70
2018-12-20T21:51:26.608Z,8.70
2018-12-20T21:53:59.227Z,8.70
2018-12-20T21:56:32.048Z,8.70
2018-12-20T21:59:04.326Z,8.70
2018-12-20T22:01:35.607Z,8.70
2018-12-20T22:04:07.646Z,8.60
2018-12-20T22:06:40.447Z,8.60
2018-12-20T22:09:11.988Z,8.70
2018-12-20T22:11:44.690Z,8.70
2018-12-20T22:14:17.226Z,8.60
2018-12-20T22:16:48.626Z,8.60
2018-12-20T22:19:20.069Z,8.60
2018-12-20T22:21:51.725Z,8.60
2018-12-20T22:24:23.507Z,8.50
2018-12-20T22:26:56.087Z,8.50
2018-12-20T22:29:27.666Z,8.50
2018-12-20T22:32:00.247Z,8.40
2018-12-20T22:34:32.928Z,8.50
2018-12-20T22:37:04.346Z,8.50
2018-12-20T22:39:36.527Z,8.50
2018-12-20T22:42:08.466Z,8.50
2018-12-20T22:44:41.687Z,8.60
2018-12-20T22:47:13.187Z,8.50
2018-12-20T22:49:45.467Z,8.50
2018-12-20T22:52:16.927Z,8.60
2018-12-20T22:54:48.706Z,8.60
2018-12-20T22:57:20.626Z,8.50
2018-12-20T22:59:53.189Z,8.60
2018-12-20T23:02:25.666Z,8.60
2018-12-20T23:04:57.265Z,8.60
2018-12-20T23:07:29.668Z,8.60
2018-12-20T23:10:00.926Z,8.50
2018-12-20T23:12:32.906Z,8.50
2018-12-20T23:15:05.468Z,8.50
2018-12-20T23:17:37.166Z,8.40
2018-12-20T23:20:10.766Z,8.30
2018-12-20T23:22:43.107Z,8.30
2018-12-20T23:25:14.629Z,8.30
2018-12-20T23:27:47.147Z,8.20
2018-12-20T23:30:19.025Z,8.30
2018-12-20T23:32:51.086Z,8.20
2018-12-20T23:35:23.146Z,8.20
2018-12-20T23:37:55.428Z,8.20
2018-12-20T23:40:26.647Z,8.30
2018-12-20T23:42:58.746Z,8.20
2018-12-20T23:45:30.426Z,8.20
2018-12-20T23:48:02.666Z,8.30
2018-12-20T23:50:34.929Z,8.30
2018-12-20T23:53:07.330Z,8.30
2018-12-20T23:55:38.765Z,8.30
2018-12-20T23:58:11.106Z,8.20
